sensor_id;sensor_type;location;lat;lon;timestamp;P1;durP1;ratioP1;P2;durP2;ratioP2
7179;SDS011;3631;42.152;24.756;2023-11-21T00:00:06;2.70;;;2.50;;
7179;SDS011;3631;42.152;24.756;2023-11-21T00:02:37;1.73;;;1.63;;
7179;SDS011;3631;42.152;24.756;2023-11-21T00:05:05;2.40;;;2.20;;
7179;SDS011;3631;42.152;24.756;2023-11-21T00:07:34;2.23;;;1.77;;
7179;SDS011;3631;42.152;24.756;2023-11-21T00:10:02;2.23;;;2.00;;
7179;SDS011;3631;42.152;24.756;2023-11-21T00:12:30;4.10;;;2.37;;
7179;SDS011;3631;42.152;24.756;2023-11-21T00:14:57;2.33;;;2.13;;
7179;SDS011;3631;42.152;24.756;2023-11-21T00:17:24;2.00;;;1.90;;
7179;SDS011;3631;42.152;24.756;2023-11-21T00:19:51;2.40;;;1.80;;
7179;SDS011;3631;42.152;24.756;2023-11-21T00:22:18;1.93;;;1.80;;
7179;SDS011;3631;42.152;24.756;2023-11-21T00:24:46;1.87;;;1.77;;
7179;SDS011;3631;42.152;24.756;2023-11-21T00:27:14;3.30;;;1.70;;
7179;SDS011;3631;42.152;24.756;2023-11-21T00:29:41;2.03;;;1.67;;
7179;SDS011;3631;42.152;24.756;2023-11-21T00:32:08;2.17;;;1.93;;
7179;SDS011;3631;42.152;24.756;2023-11-21T00:34:35;2.20;;;1.93;;
7179;SDS011;3631;42.152;24.756;2023-11-21T00:37:02;2.97;;;2.00;;
7179;SDS011;3631;42.152;24.756;2023-11-21T00:39:29;2.10;;;1.80;;
7179;SDS011;3631;42.152;24.756;2023-11-21T00:41:59;4.47;;;1.80;;
7179;SDS011;3631;42.152;24.756;2023-11-21T00:44:26;6.43;;;2.00;;
7179;SDS011;3631;42.152;24.756;2023-11-21T00:46:53;2.20;;;1.87;;
7179;SDS011;3631;42.152;24.756;2023-11-21T00:49:20;2.10;;;1.90;;
7179;SDS011;3631;42.152;24.756;2023-11-21T00:51:47;1.83;;;1.73;;
7179;SDS011;3631;42.152;24.756;2023-11-21T00:54:14;1.60;;;1.50;;
7179;SDS011;3631;42.152;24.756;2023-11-21T00:56:42;1.77;;;1.67;;
7179;SDS011;3631;42.152;24.756;2023-11-21T00:59:10;2.27;;;1.60;;
7179;SDS011;3631;42.152;24.756;2023-11-21T01:01:37;1.80;;;1.70;;
7179;SDS011;3631;42.152;24.756;2023-11-21T01:04:04;2.30;;;1.93;;
7179;SDS011;3631;42.152;24.756;2023-11-21T01:06:32;2.67;;;2.47;;
7179;SDS011;3631;42.152;24.756;2023-11-21T01:08:59;3.37;;;3.07;;
7179;SDS011;3631;42.152;24.756;2023-11-21T01:11:26;3.67;;;2.80;;
7179;SDS011;3631;42.152;24.756;2023-11-21T01:13:53;4.60;;;3.60;;
7179;SDS011;3631;42.152;24.756;2023-11-21T01:16:21;6.50;;;3.37;;
7179;SDS011;3631;42.152;24.756;2023-11-21T01:18:49;3.90;;;3.27;;
7179;SDS011;3631;42.152;24.756;2023-11-21T01:21:16;3.43;;;3.13;;
7179;SDS011;3631;42.152;24.756;2023-11-21T01:23:43;5.37;;;4.10;;
7179;SDS011;3631;42.152;24.756;2023-11-21T01:26:10;3.90;;;2.93;;
7179;SDS011;3631;42.152;24.756;2023-11-21T01:28:37;4.70;;;3.13;;
7179;SDS011;3631;42.152;24.756;2023-11-21T01:31:04;3.63;;;3.33;;
7179;SDS011;3631;42.152;24.756;2023-11-21T01:33:33;4.83;;;3.93;;
7179;SDS011;3631;42.152;24.756;2023-11-21T01:36:00;9.87;;;4.87;;
7179;SDS011;3631;42.152;24.756;2023-11-21T01:38:27;6.10;;;4.30;;
7179;SDS011;3631;42.152;24.756;2023-11-21T01:40:54;4.40;;;4.00;;
7179;SDS011;3631;42.152;24.756;2023-11-21T01:43:21;4.90;;;4.17;;
7179;SDS011;3631;42.152;24.756;2023-11-21T01:45:48;5.70;;;3.73;;
7179;SDS011;3631;42.152;24.756;2023-11-21T01:48:16;8.03;;;4.00;;
7179;SDS011;3631;42.152;24.756;2023-11-21T01:50:44;4.03;;;3.60;;
7179;SDS011;3631;42.152;24.756;2023-11-21T01:53:11;4.73;;;4.03;;
7179;SDS011;3631;42.152;24.756;2023-11-21T01:55:39;6.43;;;4.10;;
7179;SDS011;3631;42.152;24.756;2023-11-21T01:58:09;8.37;;;4.00;;
7179;SDS011;3631;42.152;24.756;2023-11-21T02:00:37;6.80;;;4.03;;
7179;SDS011;3631;42.152;24.756;2023-11-21T02:03:04;4.60;;;4.20;;
7179;SDS011;3631;42.152;24.756;2023-11-21T02:05:32;4.87;;;3.90;;
7179;SDS011;3631;42.152;24.756;2023-11-21T02:08:00;8.33;;;4.43;;
7179;SDS011;3631;42.152;24.756;2023-11-21T02:10:28;4.47;;;4.07;;
7179;SDS011;3631;42.152;24.756;2023-11-21T02:12:56;7.13;;;4.33;;
7179;SDS011;3631;42.152;24.756;2023-11-21T02:15:23;10.20;;;6.30;;
7179;SDS011;3631;42.152;24.756;2023-11-21T02:17:53;9.07;;;6.00;;
7179;SDS011;3631;42.152;24.756;2023-11-21T02:20:20;14.07;;;7.17;;
7179;SDS011;3631;42.152;24.756;2023-11-21T02:22:51;14.43;;;6.83;;
7179;SDS011;3631;42.152;24.756;2023-11-21T02:25:23;10.90;;;6.63;;
7179;SDS011;3631;42.152;24.756;2023-11-21T02:27:50;13.77;;;7.13;;
7179;SDS011;3631;42.152;24.756;2023-11-21T02:30:19;10.30;;;6.87;;
7179;SDS011;3631;42.152;24.756;2023-11-21T02:32:46;10.80;;;6.23;;
7179;SDS011;3631;42.152;24.756;2023-11-21T02:35:14;14.03;;;7.00;;
7179;SDS011;3631;42.152;24.756;2023-11-21T02:37:41;13.90;;;6.67;;
7179;SDS011;3631;42.152;24.756;2023-11-21T02:40:10;10.70;;;6.77;;
7179;SDS011;3631;42.152;24.756;2023-11-21T02:42:39;11.30;;;6.90;;
7179;SDS011;3631;42.152;24.756;2023-11-21T02:45:06;12.70;;;7.00;;
7179;SDS011;3631;42.152;24.756;2023-11-21T02:47:34;10.03;;;6.53;;
7179;SDS011;3631;42.152;24.756;2023-11-21T02:50:01;16.50;;;8.13;;
7179;SDS011;3631;42.152;24.756;2023-11-21T02:52:28;13.30;;;6.87;;
7179;SDS011;3631;42.152;24.756;2023-11-21T02:54:58;14.17;;;6.77;;
7179;SDS011;3631;42.152;24.756;2023-11-21T02:57:26;11.97;;;7.40;;
7179;SDS011;3631;42.152;24.756;2023-11-21T02:59:53;12.53;;;6.83;;
7179;SDS011;3631;42.152;24.756;2023-11-21T03:02:20;11.63;;;7.07;;
7179;SDS011;3631;42.152;24.756;2023-11-21T03:04:48;9.50;;;6.97;;
7179;SDS011;3631;42.152;24.756;2023-11-21T03:07:15;12.97;;;8.73;;
7179;SDS011;3631;42.152;24.756;2023-11-21T03:09:42;21.60;;;11.23;;
7179;SDS011;3631;42.152;24.756;2023-11-21T03:12:09;19.17;;;10.13;;
7179;SDS011;3631;42.152;24.756;2023-11-21T03:14:38;16.17;;;9.67;;
7179;SDS011;3631;42.152;24.756;2023-11-21T03:17:05;16.03;;;8.93;;
7179;SDS011;3631;42.152;24.756;2023-11-21T03:19:32;14.60;;;9.47;;
7179;SDS011;3631;42.152;24.756;2023-11-21T03:21:59;19.13;;;9.30;;
7179;SDS011;3631;42.152;24.756;2023-11-21T03:24:26;13.23;;;9.23;;
7179;SDS011;3631;42.152;24.756;2023-11-21T03:26:53;10.60;;;7.50;;
7179;SDS011;3631;42.152;24.756;2023-11-21T03:29:20;10.50;;;7.43;;
7179;SDS011;3631;42.152;24.756;2023-11-21T03:31:48;12.87;;;7.73;;
7179;SDS011;3631;42.152;24.756;2023-11-21T03:34:15;13.30;;;7.23;;
7179;SDS011;3631;42.152;24.756;2023-11-21T03:36:46;11.43;;;7.43;;
7179;SDS011;3631;42.152;24.756;2023-11-21T03:39:13;10.63;;;7.27;;
7179;SDS011;3631;42.152;24.756;2023-11-21T03:41:40;12.27;;;6.97;;
7179;SDS011;3631;42.152;24.756;2023-11-21T03:44:07;11.73;;;7.10;;
7179;SDS011;3631;42.152;24.756;2023-11-21T03:46:34;7.67;;;5.63;;
7179;SDS011;3631;42.152;24.756;2023-11-21T03:49:02;14.03;;;6.70;;
7179;SDS011;3631;42.152;24.756;2023-11-21T03:51:29;12.10;;;7.13;;
7179;SDS011;3631;42.152;24.756;2023-11-21T03:53:56;11.33;;;7.23;;
7179;SDS011;3631;42.152;24.756;2023-11-21T03:56:23;12.33;;;6.60;;
7179;SDS011;3631;42.152;24.756;2023-11-21T03:58:50;12.23;;;6.63;;
7179;SDS011;3631;42.152;24.756;2023-11-21T04:01:20;16.03;;;7.40;;
7179;SDS011;3631;42.152;24.756;2023-11-21T04:03:48;12.33;;;7.37;;
7179;SDS011;3631;42.152;24.756;2023-11-21T04:06:17;10.97;;;7.77;;
7179;SDS011;3631;42.152;24.756;2023-11-21T04:08:44;17.73;;;8.33;;
7179;SDS011;3631;42.152;24.756;2023-11-21T04:11:11;18.20;;;8.53;;
7179;SDS011;3631;42.152;24.756;2023-11-21T04:13:39;15.27;;;8.77;;
7179;SDS011;3631;42.152;24.756;2023-11-21T04:16:07;25.23;;;14.60;;
7179;SDS011;3631;42.152;24.756;2023-11-21T04:18:35;20.33;;;10.87;;
7179;SDS011;3631;42.152;24.756;2023-11-21T04:21:03;18.77;;;10.53;;
7179;SDS011;3631;42.152;24.756;2023-11-21T04:23:31;19.17;;;9.83;;
7179;SDS011;3631;42.152;24.756;2023-11-21T04:25:59;28.63;;;12.53;;
7179;SDS011;3631;42.152;24.756;2023-11-21T04:28:27;20.57;;;12.60;;
7179;SDS011;3631;42.152;24.756;2023-11-21T04:30:54;31.97;;;13.80;;
7179;SDS011;3631;42.152;24.756;2023-11-21T04:33:21;32.07;;;14.20;;
7179;SDS011;3631;42.152;24.756;2023-11-21T04:35:47;26.97;;;13.87;;
7179;SDS011;3631;42.152;24.756;2023-11-21T04:38:14;22.90;;;13.13;;
7179;SDS011;3631;42.152;24.756;2023-11-21T04:40:43;20.70;;;12.00;;
7179;SDS011;3631;42.152;24.756;2023-11-21T04:43:10;26.87;;;12.70;;
7179;SDS011;3631;42.152;24.756;2023-11-21T04:45:37;26.73;;;13.90;;
7179;SDS011;3631;42.152;24.756;2023-11-21T04:48:05;23.63;;;11.73;;
7179;SDS011;3631;42.152;24.756;2023-11-21T04:50:33;22.17;;;12.40;;
7179;SDS011;3631;42.152;24.756;2023-11-21T04:53:00;18.80;;;10.70;;
7179;SDS011;3631;42.152;24.756;2023-11-21T04:55:28;18.40;;;10.50;;
7179;SDS011;3631;42.152;24.756;2023-11-21T04:57:56;20.73;;;10.63;;
7179;SDS011;3631;42.152;24.756;2023-11-21T05:00:23;19.40;;;9.67;;
7179;SDS011;3631;42.152;24.756;2023-11-21T05:02:50;21.23;;;11.30;;
7179;SDS011;3631;42.152;24.756;2023-11-21T05:05:18;23.97;;;9.93;;
7179;SDS011;3631;42.152;24.756;2023-11-21T05:07:45;27.90;;;10.83;;
7179;SDS011;3631;42.152;24.756;2023-11-21T05:10:14;31.90;;;11.60;;
7179;SDS011;3631;42.152;24.756;2023-11-21T05:12:41;23.73;;;10.53;;
7179;SDS011;3631;42.152;24.756;2023-11-21T05:15:10;23.53;;;10.47;;
7179;SDS011;3631;42.152;24.756;2023-11-21T05:17:41;24.33;;;11.93;;
7179;SDS011;3631;42.152;24.756;2023-11-21T05:20:09;25.50;;;12.37;;
7179;SDS011;3631;42.152;24.756;2023-11-21T05:22:37;22.00;;;13.63;;
7179;SDS011;3631;42.152;24.756;2023-11-21T05:25:04;26.60;;;14.23;;
7179;SDS011;3631;42.152;24.756;2023-11-21T05:27:33;32.70;;;14.97;;
7179;SDS011;3631;42.152;24.756;2023-11-21T05:30:00;27.63;;;13.10;;
7179;SDS011;3631;42.152;24.756;2023-11-21T05:32:29;26.33;;;12.27;;
7179;SDS011;3631;42.152;24.756;2023-11-21T05:34:56;27.73;;;12.63;;
7179;SDS011;3631;42.152;24.756;2023-11-21T05:37:23;25.60;;;12.10;;
7179;SDS011;3631;42.152;24.756;2023-11-21T05:39:52;27.00;;;13.33;;
7179;SDS011;3631;42.152;24.756;2023-11-21T05:42:21;23.07;;;12.27;;
7179;SDS011;3631;42.152;24.756;2023-11-21T05:44:48;26.87;;;12.20;;
7179;SDS011;3631;42.152;24.756;2023-11-21T05:47:15;22.00;;;13.00;;
7179;SDS011;3631;42.152;24.756;2023-11-21T05:49:44;21.80;;;12.50;;
7179;SDS011;3631;42.152;24.756;2023-11-21T05:52:15;25.50;;;12.77;;
7179;SDS011;3631;42.152;24.756;2023-11-21T05:54:42;29.33;;;12.90;;
7179;SDS011;3631;42.152;24.756;2023-11-21T05:57:08;28.97;;;13.20;;
7179;SDS011;3631;42.152;24.756;2023-11-21T05:59:35;26.30;;;13.90;;
7179;SDS011;3631;42.152;24.756;2023-11-21T06:02:02;33.07;;;14.90;;
7179;SDS011;3631;42.152;24.756;2023-11-21T06:04:30;33.27;;;14.17;;
7179;SDS011;3631;42.152;24.756;2023-11-21T06:06:58;30.77;;;15.37;;
7179;SDS011;3631;42.152;24.756;2023-11-21T06:09:25;26.50;;;14.27;;
7179;SDS011;3631;42.152;24.756;2023-11-21T06:11:52;27.03;;;14.37;;
7179;SDS011;3631;42.152;24.756;2023-11-21T06:14:19;27.47;;;15.00;;
7179;SDS011;3631;42.152;24.756;2023-11-21T06:16:47;23.80;;;13.83;;
7179;SDS011;3631;42.152;24.756;2023-11-21T06:19:16;32.23;;;15.47;;
7179;SDS011;3631;42.152;24.756;2023-11-21T06:21:45;26.53;;;15.67;;
7179;SDS011;3631;42.152;24.756;2023-11-21T06:24:13;53.40;;;16.63;;
7179;SDS011;3631;42.152;24.756;2023-11-21T06:26:41;37.80;;;16.47;;
7179;SDS011;3631;42.152;24.756;2023-11-21T06:29:09;34.87;;;16.00;;
7179;SDS011;3631;42.152;24.756;2023-11-21T06:31:36;42.37;;;16.93;;
7179;SDS011;3631;42.152;24.756;2023-11-21T06:34:03;46.13;;;16.90;;
7179;SDS011;3631;42.152;24.756;2023-11-21T06:36:30;34.73;;;14.57;;
7179;SDS011;3631;42.152;24.756;2023-11-21T06:38:57;29.10;;;15.03;;
7179;SDS011;3631;42.152;24.756;2023-11-21T06:41:25;28.70;;;15.33;;
7179;SDS011;3631;42.152;24.756;2023-11-21T06:43:52;30.90;;;13.77;;
7179;SDS011;3631;42.152;24.756;2023-11-21T06:46:20;21.37;;;12.53;;
7179;SDS011;3631;42.152;24.756;2023-11-21T06:48:47;20.33;;;11.63;;
7179;SDS011;3631;42.152;24.756;2023-11-21T06:51:14;19.53;;;11.07;;
7179;SDS011;3631;42.152;24.756;2023-11-21T06:53:41;19.57;;;10.70;;
7179;SDS011;3631;42.152;24.756;2023-11-21T06:56:15;22.83;;;12.23;;
7179;SDS011;3631;42.152;24.756;2023-11-21T06:58:44;29.00;;;13.00;;
7179;SDS011;3631;42.152;24.756;2023-11-21T07:01:12;33.40;;;13.57;;
7179;SDS011;3631;42.152;24.756;2023-11-21T07:03:40;25.30;;;14.17;;
7179;SDS011;3631;42.152;24.756;2023-11-21T07:06:07;34.67;;;13.67;;
7179;SDS011;3631;42.152;24.756;2023-11-21T07:08:34;25.83;;;11.80;;
7179;SDS011;3631;42.152;24.756;2023-11-21T07:11:02;29.73;;;11.43;;
7179;SDS011;3631;42.152;24.756;2023-11-21T07:13:29;24.35;;;12.93;;
7179;SDS011;3631;42.152;24.756;2023-11-21T07:15:57;19.03;;;11.17;;
7179;SDS011;3631;42.152;24.756;2023-11-21T07:18:25;34.77;;;18.17;;
7179;SDS011;3631;42.152;24.756;2023-11-21T07:20:51;26.70;;;13.33;;
7179;SDS011;3631;42.152;24.756;2023-11-21T07:23:18;25.20;;;13.80;;
7179;SDS011;3631;42.152;24.756;2023-11-21T07:25:47;30.87;;;14.73;;
7179;SDS011;3631;42.152;24.756;2023-11-21T07:28:14;28.27;;;15.33;;
7179;SDS011;3631;42.152;24.756;2023-11-21T07:30:41;27.97;;;16.03;;
7179;SDS011;3631;42.152;24.756;2023-11-21T07:33:10;23.83;;;14.87;;
7179;SDS011;3631;42.152;24.756;2023-11-21T07:35:37;26.67;;;14.83;;
7179;SDS011;3631;42.152;24.756;2023-11-21T07:38:04;31.70;;;15.83;;
7179;SDS011;3631;42.152;24.756;2023-11-21T07:40:31;35.97;;;18.97;;
7179;SDS011;3631;42.152;24.756;2023-11-21T07:42:58;27.50;;;15.50;;
7179;SDS011;3631;42.152;24.756;2023-11-21T07:45:25;31.57;;;17.20;;
7179;SDS011;3631;42.152;24.756;2023-11-21T07:47:52;33.80;;;14.90;;
7179;SDS011;3631;42.152;24.756;2023-11-21T07:50:21;25.37;;;14.00;;
7179;SDS011;3631;42.152;24.756;2023-11-21T07:52:49;19.70;;;12.40;;
7179;SDS011;3631;42.152;24.756;2023-11-21T07:55:16;27.73;;;13.17;;
7179;SDS011;3631;42.152;24.756;2023-11-21T07:57:43;18.73;;;12.20;;
7179;SDS011;3631;42.152;24.756;2023-11-21T08:00:10;24.30;;;12.67;;
7179;SDS011;3631;42.152;24.756;2023-11-21T08:02:40;18.17;;;12.90;;
7179;SDS011;3631;42.152;24.756;2023-11-21T08:05:11;22.20;;;13.50;;
7179;SDS011;3631;42.152;24.756;2023-11-21T08:07:39;24.07;;;15.23;;
7179;SDS011;3631;42.152;24.756;2023-11-21T08:10:07;29.03;;;14.43;;
7179;SDS011;3631;42.152;24.756;2023-11-21T08:12:35;21.60;;;14.73;;
7179;SDS011;3631;42.152;24.756;2023-11-21T08:15:04;27.70;;;15.90;;
7179;SDS011;3631;42.152;24.756;2023-11-21T08:17:32;23.73;;;14.87;;
7179;SDS011;3631;42.152;24.756;2023-11-21T08:20:00;24.67;;;14.33;;
7179;SDS011;3631;42.152;24.756;2023-11-21T08:22:28;20.53;;;12.57;;
7179;SDS011;3631;42.152;24.756;2023-11-21T08:24:57;14.93;;;11.77;;
7179;SDS011;3631;42.152;24.756;2023-11-21T08:27:24;18.80;;;12.00;;
7179;SDS011;3631;42.152;24.756;2023-11-21T08:29:51;15.07;;;10.63;;
7179;SDS011;3631;42.152;24.756;2023-11-21T08:32:18;18.43;;;10.43;;
7179;SDS011;3631;42.152;24.756;2023-11-21T08:34:45;15.80;;;9.63;;
7179;SDS011;3631;42.152;24.756;2023-11-21T08:37:15;14.17;;;9.27;;
7179;SDS011;3631;42.152;24.756;2023-11-21T08:39:43;11.13;;;8.20;;
7179;SDS011;3631;42.152;24.756;2023-11-21T08:42:12;12.93;;;8.40;;
7179;SDS011;3631;42.152;24.756;2023-11-21T08:44:43;16.00;;;7.57;;
7179;SDS011;3631;42.152;24.756;2023-11-21T08:47:10;7.60;;;6.67;;
7179;SDS011;3631;42.152;24.756;2023-11-21T08:49:38;10.47;;;6.80;;
7179;SDS011;3631;42.152;24.756;2023-11-21T08:52:05;8.30;;;6.53;;
7179;SDS011;3631;42.152;24.756;2023-11-21T08:54:32;10.10;;;6.83;;
7179;SDS011;3631;42.152;24.756;2023-11-21T08:57:00;5.77;;;5.03;;
7179;SDS011;3631;42.152;24.756;2023-11-21T08:59:28;5.47;;;4.97;;
7179;SDS011;3631;42.152;24.756;2023-11-21T09:01:55;7.27;;;4.97;;
7179;SDS011;3631;42.152;24.756;2023-11-21T09:04:22;9.23;;;4.73;;
7179;SDS011;3631;42.152;24.756;2023-11-21T09:06:49;5.60;;;5.10;;
7179;SDS011;3631;42.152;24.756;2023-11-21T09:09:17;13.47;;;5.07;;
7179;SDS011;3631;42.152;24.756;2023-11-21T09:11:44;8.37;;;5.67;;
7179;SDS011;3631;42.152;24.756;2023-11-21T09:14:14;5.80;;;5.17;;
7179;SDS011;3631;42.152;24.756;2023-11-21T09:16:44;5.63;;;5.13;;
7179;SDS011;3631;42.152;24.756;2023-11-21T09:19:12;7.03;;;5.37;;
7179;SDS011;3631;42.152;24.756;2023-11-21T09:21:39;7.07;;;5.80;;
7179;SDS011;3631;42.152;24.756;2023-11-21T09:24:06;8.30;;;5.07;;
7179;SDS011;3631;42.152;24.756;2023-11-21T09:26:34;7.47;;;4.90;;
7179;SDS011;3631;42.152;24.756;2023-11-21T09:29:01;7.00;;;4.97;;
7179;SDS011;3631;42.152;24.756;2023-11-21T09:31:28;6.67;;;5.43;;
7179;SDS011;3631;42.152;24.756;2023-11-21T09:33:57;5.30;;;4.80;;
7179;SDS011;3631;42.152;24.756;2023-11-21T09:36:24;6.93;;;4.60;;
7179;SDS011;3631;42.152;24.756;2023-11-21T09:38:53;8.83;;;5.30;;
7179;SDS011;3631;42.152;24.756;2023-11-21T09:41:21;7.37;;;4.87;;
7179;SDS011;3631;42.152;24.756;2023-11-21T09:44:00;8.67;;;5.23;;
7179;SDS011;3631;42.152;24.756;2023-11-21T09:46:38;6.43;;;5.53;;
7179;SDS011;3631;42.152;24.756;2023-11-21T09:49:10;11.93;;;5.70;;
7179;SDS011;3631;42.152;24.756;2023-11-21T09:51:39;5.97;;;5.47;;
7179;SDS011;3631;42.152;24.756;2023-11-21T09:54:10;7.00;;;5.17;;
7179;SDS011;3631;42.152;24.756;2023-11-21T09:56:37;6.50;;;5.80;;
7179;SDS011;3631;42.152;24.756;2023-11-21T09:59:05;6.60;;;5.67;;
7179;SDS011;3631;42.152;24.756;2023-11-21T10:01:36;7.87;;;5.93;;
7179;SDS011;3631;42.152;24.756;2023-11-21T10:04:06;11.10;;;6.07;;
7179;SDS011;3631;42.152;24.756;2023-11-21T10:06:38;11.17;;;7.00;;
7179;SDS011;3631;42.152;24.756;2023-11-21T10:09:07;7.83;;;6.53;;
7179;SDS011;3631;42.152;24.756;2023-11-21T10:11:37;9.37;;;6.73;;
7179;SDS011;3631;42.152;24.756;2023-11-21T10:14:08;8.27;;;6.90;;
7179;SDS011;3631;42.152;24.756;2023-11-21T10:16:38;9.57;;;6.90;;
7179;SDS011;3631;42.152;24.756;2023-11-21T10:19:05;12.77;;;7.57;;
7179;SDS011;3631;42.152;24.756;2023-11-21T10:21:36;13.50;;;8.97;;
7179;SDS011;3631;42.152;24.756;2023-11-21T10:24:06;17.17;;;9.10;;
7179;SDS011;3631;42.152;24.756;2023-11-21T10:26:33;13.60;;;8.73;;
7179;SDS011;3631;42.152;24.756;2023-11-21T10:29:02;16.63;;;9.47;;
7179;SDS011;3631;42.152;24.756;2023-11-21T10:31:29;23.60;;;10.67;;
7179;SDS011;3631;42.152;24.756;2023-11-21T10:34:10;20.83;;;11.03;;
7179;SDS011;3631;42.152;24.756;2023-11-21T10:36:42;18.90;;;11.37;;
7179;SDS011;3631;42.152;24.756;2023-11-21T10:39:09;30.03;;;12.10;;
7179;SDS011;3631;42.152;24.756;2023-11-21T10:41:43;22.97;;;11.17;;
7179;SDS011;3631;42.152;24.756;2023-11-21T10:44:10;21.07;;;10.50;;
7179;SDS011;3631;42.152;24.756;2023-11-21T10:46:39;21.00;;;11.27;;
7179;SDS011;3631;42.152;24.756;2023-11-21T10:49:09;21.00;;;9.97;;
7179;SDS011;3631;42.152;24.756;2023-11-21T10:51:37;17.27;;;9.60;;
7179;SDS011;3631;42.152;24.756;2023-11-21T10:54:11;13.07;;;8.63;;
7179;SDS011;3631;42.152;24.756;2023-11-21T10:56:38;11.37;;;6.57;;
7179;SDS011;3631;42.152;24.756;2023-11-21T10:59:09;8.73;;;6.70;;
7179;SDS011;3631;42.152;24.756;2023-11-21T11:01:39;10.40;;;6.43;;
7179;SDS011;3631;42.152;24.756;2023-11-21T11:04:08;9.07;;;6.07;;
7179;SDS011;3631;42.152;24.756;2023-11-21T11:06:40;7.80;;;6.00;;
7179;SDS011;3631;42.152;24.756;2023-11-21T11:09:10;11.00;;;7.00;;
7179;SDS011;3631;42.152;24.756;2023-11-21T11:11:39;12.00;;;9.10;;
7179;SDS011;3631;42.152;24.756;2023-11-21T11:14:10;13.60;;;9.63;;
7179;SDS011;3631;42.152;24.756;2023-11-21T11:16:38;17.37;;;10.77;;
7179;SDS011;3631;42.152;24.756;2023-11-21T11:19:08;15.77;;;9.50;;
7179;SDS011;3631;42.152;24.756;2023-11-21T11:21:39;21.00;;;9.80;;
7179;SDS011;3631;42.152;24.756;2023-11-21T11:24:20;14.90;;;9.07;;
7179;SDS011;3631;42.152;24.756;2023-11-21T11:27:10;14.63;;;8.33;;
7179;SDS011;3631;42.152;24.756;2023-11-21T11:29:49;17.73;;;8.40;;
7179;SDS011;3631;42.152;24.756;2023-11-21T11:32:29;9.23;;;7.63;;
7179;SDS011;3631;42.152;24.756;2023-11-21T11:35:08;11.10;;;8.00;;
7179;SDS011;3631;42.152;24.756;2023-11-21T11:37:42;13.60;;;8.47;;
7179;SDS011;3631;42.152;24.756;2023-11-21T11:40:12;12.97;;;8.07;;
7179;SDS011;3631;42.152;24.756;2023-11-21T11:42:41;9.07;;;7.03;;
7179;SDS011;3631;42.152;24.756;2023-11-21T11:45:22;16.43;;;7.93;;
7179;SDS011;3631;42.152;24.756;2023-11-21T11:47:56;69.67;;;12.77;;
7179;SDS011;3631;42.152;24.756;2023-11-21T11:50:23;18.40;;;6.60;;
7179;SDS011;3631;42.152;24.756;2023-11-21T11:52:51;15.23;;;6.67;;
7179;SDS011;3631;42.152;24.756;2023-11-21T11:55:21;17.40;;;6.10;;
7179;SDS011;3631;42.152;24.756;2023-11-21T11:57:51;77.47;;;45.23;;
7179;SDS011;3631;42.152;24.756;2023-11-21T12:00:21;8.33;;;5.90;;
7179;SDS011;3631;42.152;24.756;2023-11-21T12:02:50;9.70;;;5.03;;
7179;SDS011;3631;42.152;24.756;2023-11-21T12:05:18;3.77;;;3.47;;
7179;SDS011;3631;42.152;24.756;2023-11-21T12:07:47;8.13;;;4.73;;
7179;SDS011;3631;42.152;24.756;2023-11-21T12:10:17;11.73;;;4.77;;
7179;SDS011;3631;42.152;24.756;2023-11-21T12:12:47;7.10;;;4.30;;
7179;SDS011;3631;42.152;24.756;2023-11-21T12:15:15;6.80;;;4.77;;
7179;SDS011;3631;42.152;24.756;2023-11-21T12:17:43;8.00;;;4.87;;
7179;SDS011;3631;42.152;24.756;2023-11-21T12:20:11;6.50;;;5.07;;
7179;SDS011;3631;42.152;24.756;2023-11-21T12:22:42;9.00;;;6.30;;
7179;SDS011;3631;42.152;24.756;2023-11-21T12:25:12;14.13;;;8.43;;
7179;SDS011;3631;42.152;24.756;2023-11-21T12:27:41;14.37;;;9.50;;
7179;SDS011;3631;42.152;24.756;2023-11-21T12:30:12;11.70;;;8.57;;
7179;SDS011;3631;42.152;24.756;2023-11-21T12:32:41;13.20;;;9.50;;
7179;SDS011;3631;42.152;24.756;2023-11-21T12:35:11;14.43;;;10.10;;
7179;SDS011;3631;42.152;24.756;2023-11-21T12:37:39;14.30;;;8.83;;
7179;SDS011;3631;42.152;24.756;2023-11-21T12:40:09;12.87;;;8.40;;
7179;SDS011;3631;42.152;24.756;2023-11-21T12:42:39;14.07;;;9.20;;
7179;SDS011;3631;42.152;24.756;2023-11-21T12:45:11;22.43;;;9.50;;
7179;SDS011;3631;42.152;24.756;2023-11-21T12:47:47;14.10;;;8.37;;
7179;SDS011;3631;42.152;24.756;2023-11-21T12:50:18;15.97;;;8.80;;
7179;SDS011;3631;42.152;24.756;2023-11-21T12:52:48;11.10;;;9.20;;
7179;SDS011;3631;42.152;24.756;2023-11-21T12:55:17;12.70;;;8.67;;
7179;SDS011;3631;42.152;24.756;2023-11-21T12:57:47;8.67;;;6.97;;
7179;SDS011;3631;42.152;24.756;2023-11-21T13:00:17;11.83;;;7.30;;
7179;SDS011;3631;42.152;24.756;2023-11-21T13:02:53;7.43;;;5.80;;
7179;SDS011;3631;42.152;24.756;2023-11-21T13:05:29;5.87;;;5.27;;
7179;SDS011;3631;42.152;24.756;2023-11-21T13:07:58;7.57;;;5.80;;
7179;SDS011;3631;42.152;24.756;2023-11-21T13:10:28;7.93;;;5.53;;
7179;SDS011;3631;42.152;24.756;2023-11-21T13:12:57;8.40;;;6.17;;
7179;SDS011;3631;42.152;24.756;2023-11-21T13:15:26;8.00;;;6.03;;
7179;SDS011;3631;42.152;24.756;2023-11-21T13:17:56;7.30;;;5.33;;
7179;SDS011;3631;42.152;24.756;2023-11-21T13:20:23;7.70;;;5.53;;
7179;SDS011;3631;42.152;24.756;2023-11-21T13:22:51;8.47;;;5.13;;
7179;SDS011;3631;42.152;24.756;2023-11-21T13:25:23;8.13;;;5.03;;
7179;SDS011;3631;42.152;24.756;2023-11-21T13:27:52;9.40;;;6.00;;
7179;SDS011;3631;42.152;24.756;2023-11-21T13:30:22;11.80;;;7.50;;
7179;SDS011;3631;42.152;24.756;2023-11-21T13:32:56;9.63;;;6.47;;
7179;SDS011;3631;42.152;24.756;2023-11-21T13:35:27;12.03;;;6.17;;
7179;SDS011;3631;42.152;24.756;2023-11-21T13:38:03;8.97;;;7.37;;
7179;SDS011;3631;42.152;24.756;2023-11-21T13:40:32;10.53;;;7.40;;
7179;SDS011;3631;42.152;24.756;2023-11-21T13:43:08;13.83;;;7.67;;
7179;SDS011;3631;42.152;24.756;2023-11-21T13:45:35;11.67;;;7.53;;
7179;SDS011;3631;42.152;24.756;2023-11-21T13:48:06;12.13;;;8.10;;
7179;SDS011;3631;42.152;24.756;2023-11-21T13:50:35;15.63;;;8.10;;
7179;SDS011;3631;42.152;24.756;2023-11-21T13:53:02;13.07;;;8.40;;
7179;SDS011;3631;42.152;24.756;2023-11-21T13:55:36;13.27;;;8.43;;
7179;SDS011;3631;42.152;24.756;2023-11-21T13:58:05;12.97;;;8.63;;
7179;SDS011;3631;42.152;24.756;2023-11-21T14:00:35;13.30;;;9.10;;
7179;SDS011;3631;42.152;24.756;2023-11-21T14:03:11;11.77;;;8.47;;
7179;SDS011;3631;42.152;24.756;2023-11-21T14:05:45;16.87;;;9.07;;
7179;SDS011;3631;42.152;24.756;2023-11-21T14:08:16;16.90;;;8.47;;
7179;SDS011;3631;42.152;24.756;2023-11-21T14:10:45;13.53;;;8.90;;
7179;SDS011;3631;42.152;24.756;2023-11-21T14:13:20;15.20;;;8.63;;
7179;SDS011;3631;42.152;24.756;2023-11-21T14:15:48;11.63;;;8.83;;
7179;SDS011;3631;42.152;24.756;2023-11-21T14:18:18;22.20;;;9.10;;
7179;SDS011;3631;42.152;24.756;2023-11-21T14:20:59;12.27;;;8.30;;
7179;SDS011;3631;42.152;24.756;2023-11-21T14:23:26;13.83;;;8.93;;
7179;SDS011;3631;42.152;24.756;2023-11-21T14:25:55;13.57;;;8.97;;
7179;SDS011;3631;42.152;24.756;2023-11-21T14:28:22;14.83;;;8.77;;
7179;SDS011;3631;42.152;24.756;2023-11-21T14:30:49;18.67;;;10.00;;
7179;SDS011;3631;42.152;24.756;2023-11-21T14:33:18;18.37;;;10.03;;
7179;SDS011;3631;42.152;24.756;2023-11-21T14:35:46;18.77;;;10.20;;
7179;SDS011;3631;42.152;24.756;2023-11-21T14:38:13;20.33;;;11.03;;
7179;SDS011;3631;42.152;24.756;2023-11-21T14:40:41;17.77;;;10.67;;
7179;SDS011;3631;42.152;24.756;2023-11-21T14:43:09;18.73;;;11.23;;
7179;SDS011;3631;42.152;24.756;2023-11-21T14:45:36;20.27;;;12.20;;
7179;SDS011;3631;42.152;24.756;2023-11-21T14:48:03;18.10;;;12.57;;
7179;SDS011;3631;42.152;24.756;2023-11-21T14:50:42;24.90;;;12.40;;
7179;SDS011;3631;42.152;24.756;2023-11-21T14:53:36;26.13;;;15.37;;
7179;SDS011;3631;42.152;24.756;2023-11-21T14:56:09;37.60;;;15.57;;